CYHZCYYR

Guest
Details From CYHZ - Halifax Intl
To CYYR - Goose Bay
Flight Number -
Tags Generated
Created
Modified
Stats Distance 522 nm / 967 km
Max Altitude 0 ft / 0 m
Waypoints 3
Social Downloads 1
Likes 0
Share VATSIM

Download

Looking for another format? Having issues loading an existing format? Contact us
Advertisement - Login to hide

Notes

Generated

Route

CYHZ YR001 CYYR

ID Type Via Altitude Latitude Longitude Leg Dist Tot Dist Heading (true) Name
O CYHZ APT - 0 ft / 0 m 44.89362˚ -63.51800˚ - 0 nm - -
YR001 FIX - 0 ft / 0 m 53.32080˚ -60.40692˚ 520 nm 520 nm 12° / 15° -
O CYYR APT - 0 ft / 0 m 53.33389˚ -60.43639˚ 1 nm 521 nm 307° / 307° -

Altitude Profile

Advertisement - Login to hide

Weather


0- 5 10 15 20 25 30 35+ Temperature / ° C

Clouds and Precipitation
Forecast for 2017-12-11 18:00 UTC. Updated 2 hours ago

Ground ~20,000 ft ~40,000 ft Winds

CYHZ

Details ICAO CYHZ (YHZ)
Name HALIFAX INTL
Region Canada
Timezone America/Halifax (UTC-4.0)
Stats Elevation 477 ft / 145 m (AMSL)
Location 44.883158° -63.510554°
Runways 2
Magnetic Variation 17.421° W

METAR

CYHZ 111800Z 13008KT 15SM OVC003 01/01 A2987 RMK SF8 CIG RAG SLP123

Decode

TAF

TAF AMD TAF AMD CYHZ 111804Z 1118/1218 14010KT P6SM -SN BKN012 OVC100 TEMPO 1118/1123 3SM -SHSNRA BR BKN003 OVC030 FM112300 30008KT P6SM BKN025 TEMPO 1123/1203 5SM -SHSN BR OVC015 FM120400 36010KT P6SM FEW020 BKN050 BECMG 1210/1212 06008KT BKN025 FM121700 09010KT 3SM -DZ BR OVC015 TEMPO 1217/1218 P6SM NSW BKN025 RMK NXT FCST BY 112100Z

Decode

Departure Runways

ID Width Length Bearing (true) Bearing (mag) Surface Threshold Offset Overrun Length
05 200 ft / 61 m 8,608 ft / 2,624 m 34.95° 52.37° Asphalt 0 ft / 0 m 0 ft / 0 m
14 200 ft / 61 m 7,571 ft / 2,308 m 125.19° 142.61° Asphalt 0 ft / 0 m 0 ft / 0 m
23 200 ft / 61 m 8,608 ft / 2,624 m 214.97° 232.39° Asphalt 0 ft / 0 m 0 ft / 0 m
32 200 ft / 61 m 7,571 ft / 2,308 m 305.21° 322.63° Asphalt 0 ft / 0 m 0 ft / 0 m

CYYR

Details ICAO CYYR (YYR)
Name Goose Bay
Region Canada
Timezone America/Goose_Bay (UTC-4.0)
Stats Elevation 160 ft / 49 m (AMSL)
Location 53.318820° -60.423890°
Runways 2
Magnetic Variation 20.965° W

METAR

CYYR 111800Z 25019G25KT 15SM DRSN FEW026 M15/M21 A2970 RMK SC1 SLP063

Decode

TAF

TAF CYYR 111730Z 1118/1218 25020G30KT P6SM FEW030 BECMG 1120/1122 25012KT RMK NXT FCST BY 120000Z

Decode

Destination Runways

ID Width Length Bearing (true) Bearing (mag) Surface Threshold Offset Overrun Length
08 209 ft / 64 m 11,055 ft / 3,369 m 54.70° 75.66° Asphalt 0 ft / 0 m 1,000 ft / 305 m
16 200 ft / 61 m 9,515 ft / 2,900 m 132.96° 153.92° Asphalt 0 ft / 0 m 0 ft / 0 m
26 209 ft / 64 m 11,055 ft / 3,369 m 234.73° 255.69° Asphalt 0 ft / 0 m 1,000 ft / 305 m
34 200 ft / 61 m 9,515 ft / 2,900 m 312.99° 333.95° Asphalt 0 ft / 0 m 500 ft / 152 m

Popular Alternatives